sensor_id;sensor_type;location;lat;lon;timestamp;temperature;humidity
2757;DHT22;1386;50.862;6.494;2023-08-31T00:01:18;13.90;99.90
2757;DHT22;1386;50.862;6.494;2023-08-31T00:03:44;13.90;99.90
2757;DHT22;1386;50.862;6.494;2023-08-31T00:06:11;13.80;99.90
2757;DHT22;1386;50.862;6.494;2023-08-31T00:08:38;13.80;99.90
2757;DHT22;1386;50.862;6.494;2023-08-31T00:11:06;13.80;99.90
2757;DHT22;1386;50.862;6.494;2023-08-31T00:13:33;13.80;99.90
2757;DHT22;1386;50.862;6.494;2023-08-31T00:16:00;13.80;99.90
2757;DHT22;1386;50.862;6.494;2023-08-31T00:18:27;13.80;99.90
2757;DHT22;1386;50.862;6.494;2023-08-31T00:20:54;13.80;99.90
2757;DHT22;1386;50.862;6.494;2023-08-31T00:23:21;13.80;99.90
2757;DHT22;1386;50.862;6.494;2023-08-31T00:25:47;13.90;99.90
2757;DHT22;1386;50.862;6.494;2023-08-31T00:28:16;13.80;99.90
2757;DHT22;1386;50.862;6.494;2023-08-31T00:30:44;13.80;99.90
2757;DHT22;1386;50.862;6.494;2023-08-31T00:33:11;13.80;99.90
2757;DHT22;1386;50.862;6.494;2023-08-31T00:35:38;13.80;99.90
2757;DHT22;1386;50.862;6.494;2023-08-31T00:38:11;13.80;99.90
2757;DHT22;1386;50.862;6.494;2023-08-31T00:40:40;13.80;99.90
2757;DHT22;1386;50.862;6.494;2023-08-31T00:43:08;13.80;99.90
2757;DHT22;1386;50.862;6.494;2023-08-31T00:45:36;13.80;99.90
2757;DHT22;1386;50.862;6.494;2023-08-31T00:48:04;13.80;99.90
2757;DHT22;1386;50.862;6.494;2023-08-31T00:50:31;13.80;99.90
2757;DHT22;1386;50.862;6.494;2023-08-31T00:52:58;13.80;99.90
2757;DHT22;1386;50.862;6.494;2023-08-31T00:55:25;13.80;99.90
2757;DHT22;1386;50.862;6.494;2023-08-31T00:57:52;13.80;99.90
2757;DHT22;1386;50.862;6.494;2023-08-31T01:00:21;13.70;99.90
2757;DHT22;1386;50.862;6.494;2023-08-31T01:02:59;13.70;99.90
2757;DHT22;1386;50.862;6.494;2023-08-31T01:05:37;13.60;99.90
2757;DHT22;1386;50.862;6.494;2023-08-31T01:08:16;13.60;99.90
2757;DHT22;1386;50.862;6.494;2023-08-31T01:10:51;13.60;99.90
2757;DHT22;1386;50.862;6.494;2023-08-31T01:13:24;13.50;99.90
2757;DHT22;1386;50.862;6.494;2023-08-31T01:15:54;13.50;99.90
2757;DHT22;1386;50.862;6.494;2023-08-31T01:18:25;13.50;99.90
2757;DHT22;1386;50.862;6.494;2023-08-31T01:20:58;13.50;99.90
2757;DHT22;1386;50.862;6.494;2023-08-31T01:23:30;13.50;99.90
2757;DHT22;1386;50.862;6.494;2023-08-31T01:26:02;13.40;99.90
2757;DHT22;1386;50.862;6.494;2023-08-31T01:28:32;13.40;99.90
2757;DHT22;1386;50.862;6.494;2023-08-31T01:31:03;13.40;99.90
2757;DHT22;1386;50.862;6.494;2023-08-31T01:33:30;13.40;99.90
2757;DHT22;1386;50.862;6.494;2023-08-31T01:36:00;13.40;99.90
2757;DHT22;1386;50.862;6.494;2023-08-31T01:38:31;13.40;99.90
2757;DHT22;1386;50.862;6.494;2023-08-31T01:41:05;13.40;99.90
2757;DHT22;1386;50.862;6.494;2023-08-31T01:43:34;13.30;99.90
2757;DHT22;1386;50.862;6.494;2023-08-31T01:46:01;13.30;99.90
2757;DHT22;1386;50.862;6.494;2023-08-31T01:48:28;13.30;99.90
2757;DHT22;1386;50.862;6.494;2023-08-31T01:50:58;13.30;99.90
2757;DHT22;1386;50.862;6.494;2023-08-31T01:53:26;13.20;99.90
2757;DHT22;1386;50.862;6.494;2023-08-31T01:55:53;13.20;99.90
2757;DHT22;1386;50.862;6.494;2023-08-31T01:58:22;13.20;99.90
2757;DHT22;1386;50.862;6.494;2023-08-31T02:00:49;13.20;99.90
2757;DHT22;1386;50.862;6.494;2023-08-31T02:03:16;13.20;99.90
2757;DHT22;1386;50.862;6.494;2023-08-31T02:05:42;13.10;99.90
2757;DHT22;1386;50.862;6.494;2023-08-31T02:08:09;13.10;99.90
2757;DHT22;1386;50.862;6.494;2023-08-31T02:10:36;13.00;99.90
2757;DHT22;1386;50.862;6.494;2023-08-31T02:13:03;13.00;99.90
2757;DHT22;1386;50.862;6.494;2023-08-31T02:15:31;13.00;99.90
2757;DHT22;1386;50.862;6.494;2023-08-31T02:17:58;13.00;99.90
2757;DHT22;1386;50.862;6.494;2023-08-31T02:20:25;12.90;99.90
2757;DHT22;1386;50.862;6.494;2023-08-31T02:22:52;13.00;99.90
2757;DHT22;1386;50.862;6.494;2023-08-31T02:25:19;12.90;99.90
2757;DHT22;1386;50.862;6.494;2023-08-31T02:27:45;12.90;99.90
2757;DHT22;1386;50.862;6.494;2023-08-31T02:30:12;12.80;99.90
2757;DHT22;1386;50.862;6.494;2023-08-31T02:32:40;12.80;99.90
2757;DHT22;1386;50.862;6.494;2023-08-31T02:35:08;12.80;99.90
2757;DHT22;1386;50.862;6.494;2023-08-31T02:37:37;12.80;99.90
2757;DHT22;1386;50.862;6.494;2023-08-31T02:40:04;12.80;99.90
2757;DHT22;1386;50.862;6.494;2023-08-31T02:42:32;12.80;99.90
2757;DHT22;1386;50.862;6.494;2023-08-31T02:44:58;12.80;99.90
2757;DHT22;1386;50.862;6.494;2023-08-31T02:47:25;12.80;99.90
2757;DHT22;1386;50.862;6.494;2023-08-31T02:49:53;12.70;99.90
2757;DHT22;1386;50.862;6.494;2023-08-31T02:52:20;12.80;99.90
2757;DHT22;1386;50.862;6.494;2023-08-31T02:54:47;12.70;99.90
2757;DHT22;1386;50.862;6.494;2023-08-31T02:57:14;12.70;99.90
2757;DHT22;1386;50.862;6.494;2023-08-31T02:59:44;12.70;99.90
2757;DHT22;1386;50.862;6.494;2023-08-31T03:02:12;12.70;99.90
2757;DHT22;1386;50.862;6.494;2023-08-31T03:04:38;12.70;99.90
2757;DHT22;1386;50.862;6.494;2023-08-31T03:07:07;12.70;99.90
2757;DHT22;1386;50.862;6.494;2023-08-31T03:09:34;12.70;99.90
2757;DHT22;1386;50.862;6.494;2023-08-31T03:12:01;12.80;99.90
2757;DHT22;1386;50.862;6.494;2023-08-31T03:14:27;12.80;99.90
2757;DHT22;1386;50.862;6.494;2023-08-31T03:16:54;12.80;99.90
2757;DHT22;1386;50.862;6.494;2023-08-31T03:19:21;12.80;99.90
2757;DHT22;1386;50.862;6.494;2023-08-31T03:21:48;12.80;99.90
2757;DHT22;1386;50.862;6.494;2023-08-31T03:24:16;12.80;99.90
2757;DHT22;1386;50.862;6.494;2023-08-31T03:26:43;12.80;99.90
2757;DHT22;1386;50.862;6.494;2023-08-31T03:29:09;12.80;99.90
2757;DHT22;1386;50.862;6.494;2023-08-31T03:31:39;12.80;99.90
2757;DHT22;1386;50.862;6.494;2023-08-31T03:34:06;12.80;99.90
2757;DHT22;1386;50.862;6.494;2023-08-31T03:36:33;12.80;99.90
2757;DHT22;1386;50.862;6.494;2023-08-31T03:38:59;12.70;99.90
2757;DHT22;1386;50.862;6.494;2023-08-31T03:41:28;12.70;99.90
2757;DHT22;1386;50.862;6.494;2023-08-31T03:43:54;12.70;99.90
2757;DHT22;1386;50.862;6.494;2023-08-31T03:46:21;12.70;99.90
2757;DHT22;1386;50.862;6.494;2023-08-31T03:48:48;12.70;99.90
2757;DHT22;1386;50.862;6.494;2023-08-31T03:51:15;12.70;99.90
2757;DHT22;1386;50.862;6.494;2023-08-31T03:53:41;12.70;99.90
2757;DHT22;1386;50.862;6.494;2023-08-31T03:56:09;12.70;99.90
2757;DHT22;1386;50.862;6.494;2023-08-31T03:58:38;12.70;99.90
2757;DHT22;1386;50.862;6.494;2023-08-31T04:01:05;12.70;99.90
2757;DHT22;1386;50.862;6.494;2023-08-31T04:03:32;12.70;99.90
2757;DHT22;1386;50.862;6.494;2023-08-31T04:05:59;12.70;99.90
2757;DHT22;1386;50.862;6.494;2023-08-31T04:08:25;12.70;99.90
2757;DHT22;1386;50.862;6.494;2023-08-31T04:10:53;12.70;99.90
2757;DHT22;1386;50.862;6.494;2023-08-31T04:13:19;12.70;99.90
2757;DHT22;1386;50.862;6.494;2023-08-31T04:15:47;12.70;99.90
2757;DHT22;1386;50.862;6.494;2023-08-31T04:18:14;12.70;99.90
2757;DHT22;1386;50.862;6.494;2023-08-31T04:20:48;12.70;99.90
2757;DHT22;1386;50.862;6.494;2023-08-31T04:23:16;12.60;99.90
2757;DHT22;1386;50.862;6.494;2023-08-31T04:25:43;12.60;99.90
2757;DHT22;1386;50.862;6.494;2023-08-31T04:28:10;12.60;99.90
2757;DHT22;1386;50.862;6.494;2023-08-31T04:30:36;12.60;99.90
2757;DHT22;1386;50.862;6.494;2023-08-31T04:33:06;12.60;99.90
2757;DHT22;1386;50.862;6.494;2023-08-31T04:35:33;12.60;99.90
2757;DHT22;1386;50.862;6.494;2023-08-31T04:38:00;12.60;99.90
2757;DHT22;1386;50.862;6.494;2023-08-31T04:40:27;12.60;99.90
2757;DHT22;1386;50.862;6.494;2023-08-31T04:42:54;12.60;99.90
2757;DHT22;1386;50.862;6.494;2023-08-31T04:45:21;12.60;99.90
2757;DHT22;1386;50.862;6.494;2023-08-31T04:47:48;12.50;99.90
2757;DHT22;1386;50.862;6.494;2023-08-31T04:50:18;12.50;99.90
2757;DHT22;1386;50.862;6.494;2023-08-31T04:52:44;12.60;99.90
2757;DHT22;1386;50.862;6.494;2023-08-31T04:55:12;12.50;99.90
2757;DHT22;1386;50.862;6.494;2023-08-31T04:57:40;12.50;99.90
2757;DHT22;1386;50.862;6.494;2023-08-31T05:00:07;12.50;99.90
2757;DHT22;1386;50.862;6.494;2023-08-31T05:02:35;12.50;99.90
2757;DHT22;1386;50.862;6.494;2023-08-31T05:05:02;12.50;99.90
2757;DHT22;1386;50.862;6.494;2023-08-31T05:07:31;12.50;99.90
2757;DHT22;1386;50.862;6.494;2023-08-31T05:09:58;12.50;99.90
2757;DHT22;1386;50.862;6.494;2023-08-31T05:12:24;12.50;99.90
2757;DHT22;1386;50.862;6.494;2023-08-31T05:14:51;12.50;99.90
2757;DHT22;1386;50.862;6.494;2023-08-31T05:17:18;12.40;99.90
2757;DHT22;1386;50.862;6.494;2023-08-31T05:19:45;12.50;99.90
2757;DHT22;1386;50.862;6.494;2023-08-31T05:22:12;12.50;99.90
2757;DHT22;1386;50.862;6.494;2023-08-31T05:24:40;12.50;99.90
2757;DHT22;1386;50.862;6.494;2023-08-31T05:27:07;12.50;99.90
2757;DHT22;1386;50.862;6.494;2023-08-31T05:29:34;12.50;99.90
2757;DHT22;1386;50.862;6.494;2023-08-31T05:32:01;12.60;99.90
2757;DHT22;1386;50.862;6.494;2023-08-31T05:34:28;12.50;99.90
2757;DHT22;1386;50.862;6.494;2023-08-31T05:36:56;12.50;99.90
2757;DHT22;1386;50.862;6.494;2023-08-31T05:39:22;12.50;99.90
2757;DHT22;1386;50.862;6.494;2023-08-31T05:41:51;12.50;99.90
2757;DHT22;1386;50.862;6.494;2023-08-31T05:44:18;12.60;99.90
2757;DHT22;1386;50.862;6.494;2023-08-31T05:46:45;12.60;99.90
2757;DHT22;1386;50.862;6.494;2023-08-31T05:49:11;12.60;99.90
2757;DHT22;1386;50.862;6.494;2023-08-31T05:51:38;12.60;99.90
2757;DHT22;1386;50.862;6.494;2023-08-31T05:54:05;12.60;99.90
2757;DHT22;1386;50.862;6.494;2023-08-31T05:56:35;12.70;99.90
2757;DHT22;1386;50.862;6.494;2023-08-31T05:59:04;12.70;99.90
2757;DHT22;1386;50.862;6.494;2023-08-31T06:01:31;12.70;99.90
2757;DHT22;1386;50.862;6.494;2023-08-31T06:03:58;12.70;99.90
2757;DHT22;1386;50.862;6.494;2023-08-31T06:06:25;12.70;99.90
2757;DHT22;1386;50.862;6.494;2023-08-31T06:08:51;12.80;99.90
2757;DHT22;1386;50.862;6.494;2023-08-31T06:11:19;12.80;99.90
2757;DHT22;1386;50.862;6.494;2023-08-31T06:13:46;12.90;99.90
2757;DHT22;1386;50.862;6.494;2023-08-31T06:16:15;12.90;99.90
2757;DHT22;1386;50.862;6.494;2023-08-31T06:18:41;13.00;99.90
2757;DHT22;1386;50.862;6.494;2023-08-31T06:21:09;13.00;99.90
2757;DHT22;1386;50.862;6.494;2023-08-31T06:23:36;13.00;99.90
2757;DHT22;1386;50.862;6.494;2023-08-31T06:26:02;13.10;99.90
2757;DHT22;1386;50.862;6.494;2023-08-31T06:28:30;13.10;99.90
2757;DHT22;1386;50.862;6.494;2023-08-31T06:30:56;13.10;99.90
2757;DHT22;1386;50.862;6.494;2023-08-31T06:33:25;13.20;99.90
2757;DHT22;1386;50.862;6.494;2023-08-31T06:35:51;13.20;99.90
2757;DHT22;1386;50.862;6.494;2023-08-31T06:38:18;13.30;99.90
2757;DHT22;1386;50.862;6.494;2023-08-31T06:40:46;13.30;99.90
2757;DHT22;1386;50.862;6.494;2023-08-31T06:43:13;13.40;99.90
2757;DHT22;1386;50.862;6.494;2023-08-31T06:45:40;13.40;99.90
2757;DHT22;1386;50.862;6.494;2023-08-31T06:48:07;13.40;99.90
2757;DHT22;1386;50.862;6.494;2023-08-31T06:50:35;13.50;99.90
2757;DHT22;1386;50.862;6.494;2023-08-31T06:53:02;13.60;99.90
2757;DHT22;1386;50.862;6.494;2023-08-31T06:55:30;13.60;99.90
2757;DHT22;1386;50.862;6.494;2023-08-31T06:57:57;13.70;99.90
2757;DHT22;1386;50.862;6.494;2023-08-31T07:00:24;13.70;99.90
2757;DHT22;1386;50.862;6.494;2023-08-31T07:02:51;13.80;99.90
2757;DHT22;1386;50.862;6.494;2023-08-31T07:05:19;13.80;99.90
2757;DHT22;1386;50.862;6.494;2023-08-31T07:07:52;13.90;99.90
2757;DHT22;1386;50.862;6.494;2023-08-31T07:10:19;14.00;99.90
2757;DHT22;1386;50.862;6.494;2023-08-31T07:12:46;14.10;99.90
2757;DHT22;1386;50.862;6.494;2023-08-31T07:15:13;14.20;99.90
2757;DHT22;1386;50.862;6.494;2023-08-31T07:17:40;14.20;99.90
2757;DHT22;1386;50.862;6.494;2023-08-31T07:20:08;14.30;99.90
2757;DHT22;1386;50.862;6.494;2023-08-31T07:22:37;14.30;99.90
2757;DHT22;1386;50.862;6.494;2023-08-31T07:25:07;14.40;99.90
2757;DHT22;1386;50.862;6.494;2023-08-31T07:27:34;14.50;99.90
2757;DHT22;1386;50.862;6.494;2023-08-31T07:30:01;14.50;99.90
2757;DHT22;1386;50.862;6.494;2023-08-31T07:32:29;14.60;99.90
2757;DHT22;1386;50.862;6.494;2023-08-31T07:34:56;14.70;99.90
2757;DHT22;1386;50.862;6.494;2023-08-31T07:37:22;14.70;99.90
2757;DHT22;1386;50.862;6.494;2023-08-31T07:39:49;14.90;99.90
2757;DHT22;1386;50.862;6.494;2023-08-31T07:42:17;15.00;99.90
2757;DHT22;1386;50.862;6.494;2023-08-31T07:44:44;15.10;99.90
2757;DHT22;1386;50.862;6.494;2023-08-31T07:47:11;15.10;99.90
2757;DHT22;1386;50.862;6.494;2023-08-31T07:49:38;15.10;99.90
2757;DHT22;1386;50.862;6.494;2023-08-31T07:52:05;15.10;99.90
2757;DHT22;1386;50.862;6.494;2023-08-31T07:54:37;15.10;99.90
2757;DHT22;1386;50.862;6.494;2023-08-31T07:57:04;15.20;99.90
2757;DHT22;1386;50.862;6.494;2023-08-31T07:59:33;15.20;99.90
2757;DHT22;1386;50.862;6.494;2023-08-31T08:02:05;15.30;99.90
2757;DHT22;1386;50.862;6.494;2023-08-31T08:04:32;15.30;99.90
2757;DHT22;1386;50.862;6.494;2023-08-31T08:06:59;15.40;99.90
2757;DHT22;1386;50.862;6.494;2023-08-31T08:09:26;15.40;99.90
2757;DHT22;1386;50.862;6.494;2023-08-31T08:11:55;15.50;99.90
2757;DHT22;1386;50.862;6.494;2023-08-31T08:14:22;15.60;99.90
2757;DHT22;1386;50.862;6.494;2023-08-31T08:16:50;15.70;99.90
2757;DHT22;1386;50.862;6.494;2023-08-31T08:19:21;15.80;99.90
2757;DHT22;1386;50.862;6.494;2023-08-31T08:21:49;15.90;99.90
2757;DHT22;1386;50.862;6.494;2023-08-31T08:24:16;16.00;99.90
2757;DHT22;1386;50.862;6.494;2023-08-31T08:26:43;16.10;99.90
2757;DHT22;1386;50.862;6.494;2023-08-31T08:29:10;16.30;99.90
2757;DHT22;1386;50.862;6.494;2023-08-31T08:31:37;16.30;99.90
2757;DHT22;1386;50.862;6.494;2023-08-31T08:34:08;16.50;99.90
2757;DHT22;1386;50.862;6.494;2023-08-31T08:36:36;16.70;99.90
2757;DHT22;1386;50.862;6.494;2023-08-31T08:39:03;16.80;99.90
2757;DHT22;1386;50.862;6.494;2023-08-31T08:41:32;17.00;99.90
2757;DHT22;1386;50.862;6.494;2023-08-31T08:44:02;17.20;99.90
2757;DHT22;1386;50.862;6.494;2023-08-31T08:46:31;17.40;99.90
2757;DHT22;1386;50.862;6.494;2023-08-31T08:48:59;17.50;99.90
2757;DHT22;1386;50.862;6.494;2023-08-31T08:51:30;17.60;99.90
2757;DHT22;1386;50.862;6.494;2023-08-31T08:53:59;17.70;99.90
2757;DHT22;1386;50.862;6.494;2023-08-31T08:56:26;17.80;99.90
2757;DHT22;1386;50.862;6.494;2023-08-31T08:58:53;18.10;99.90
2757;DHT22;1386;50.862;6.494;2023-08-31T09:01:20;18.20;99.90
2757;DHT22;1386;50.862;6.494;2023-08-31T09:03:49;18.30;99.90
2757;DHT22;1386;50.862;6.494;2023-08-31T09:06:16;18.50;99.90
2757;DHT22;1386;50.862;6.494;2023-08-31T09:08:44;18.50;99.90
2757;DHT22;1386;50.862;6.494;2023-08-31T09:11:20;18.60;99.90
2757;DHT22;1386;50.862;6.494;2023-08-31T09:13:48;18.70;99.90
2757;DHT22;1386;50.862;6.494;2023-08-31T09:16:23;18.70;99.90
2757;DHT22;1386;50.862;6.494;2023-08-31T09:18:50;18.90;99.90
2757;DHT22;1386;50.862;6.494;2023-08-31T09:21:17;19.00;99.90
2757;DHT22;1386;50.862;6.494;2023-08-31T09:23:47;19.10;99.90
2757;DHT22;1386;50.862;6.494;2023-08-31T09:26:21;19.20;99.90
2757;DHT22;1386;50.862;6.494;2023-08-31T09:28:49;19.30;99.90
2757;DHT22;1386;50.862;6.494;2023-08-31T09:31:16;19.30;99.90
2757;DHT22;1386;50.862;6.494;2023-08-31T09:33:50;19.50;99.90
2757;DHT22;1386;50.862;6.494;2023-08-31T09:36:19;19.70;99.90
2757;DHT22;1386;50.862;6.494;2023-08-31T09:38:48;19.70;99.90
2757;DHT22;1386;50.862;6.494;2023-08-31T09:41:15;19.70;99.90
2757;DHT22;1386;50.862;6.494;2023-08-31T09:43:42;19.60;99.90
2757;DHT22;1386;50.862;6.494;2023-08-31T09:46:09;19.50;99.90
2757;DHT22;1386;50.862;6.494;2023-08-31T09:48:37;19.50;99.90
2757;DHT22;1386;50.862;6.494;2023-08-31T09:51:05;19.70;99.90
2757;DHT22;1386;50.862;6.494;2023-08-31T09:53:36;19.80;99.90
2757;DHT22;1386;50.862;6.494;2023-08-31T09:56:05;19.80;99.90
2757;DHT22;1386;50.862;6.494;2023-08-31T09:58:32;20.00;99.90
2757;DHT22;1386;50.862;6.494;2023-08-31T10:00:59;19.90;99.90
2757;DHT22;1386;50.862;6.494;2023-08-31T10:03:28;20.00;99.90
2757;DHT22;1386;50.862;6.494;2023-08-31T10:05:55;19.80;99.90
2757;DHT22;1386;50.862;6.494;2023-08-31T10:08:23;19.80;99.90
2757;DHT22;1386;50.862;6.494;2023-08-31T10:10:52;19.90;99.90
2757;DHT22;1386;50.862;6.494;2023-08-31T10:13:21;20.00;99.90
2757;DHT22;1386;50.862;6.494;2023-08-31T10:15:49;20.00;99.90
2757;DHT22;1386;50.862;6.494;2023-08-31T10:18:16;20.10;99.90
2757;DHT22;1386;50.862;6.494;2023-08-31T10:20:43;20.30;99.90
2757;DHT22;1386;50.862;6.494;2023-08-31T10:23:11;20.40;99.90
2757;DHT22;1386;50.862;6.494;2023-08-31T10:26:00;20.50;99.90
2757;DHT22;1386;50.862;6.494;2023-08-31T10:28:39;20.60;99.90
2757;DHT22;1386;50.862;6.494;2023-08-31T10:31:07;20.50;99.90
2757;DHT22;1386;50.862;6.494;2023-08-31T10:33:34;20.70;99.90
2757;DHT22;1386;50.862;6.494;2023-08-31T17:03:07;18.50;99.90
2757;DHT22;1386;50.862;6.494;2023-08-31T17:05:40;18.50;99.90
2757;DHT22;1386;50.862;6.494;2023-08-31T17:08:07;18.50;99.90
2757;DHT22;1386;50.862;6.494;2023-08-31T17:10:38;18.50;99.90
2757;DHT22;1386;50.862;6.494;2023-08-31T17:13:05;18.50;99.90
2757;DHT22;1386;50.862;6.494;2023-08-31T17:15:34;18.40;99.90
2757;DHT22;1386;50.862;6.494;2023-08-31T17:18:10;18.40;99.90
2757;DHT22;1386;50.862;6.494;2023-08-31T17:20:37;18.40;99.90
2757;DHT22;1386;50.862;6.494;2023-08-31T17:23:09;18.40;99.90
2757;DHT22;1386;50.862;6.494;2023-08-31T17:25:53;18.40;99.90
2757;DHT22;1386;50.862;6.494;2023-08-31T17:28:22;18.30;99.90
2757;DHT22;1386;50.862;6.494;2023-08-31T17:30:58;18.30;99.90
2757;DHT22;1386;50.862;6.494;2023-08-31T17:33:37;18.30;99.90
2757;DHT22;1386;50.862;6.494;2023-08-31T17:36:22;18.30;99.90
2757;DHT22;1386;50.862;6.494;2023-08-31T17:38:59;18.20;99.90
2757;DHT22;1386;50.862;6.494;2023-08-31T17:41:26;18.20;99.90
2757;DHT22;1386;50.862;6.494;2023-08-31T17:48:00;18.10;99.90
2757;DHT22;1386;50.862;6.494;2023-08-31T17:54:42;18.10;99.90
2757;DHT22;1386;50.862;6.494;2023-08-31T17:57:55;18.10;99.90
2757;DHT22;1386;50.862;6.494;2023-08-31T18:03:45;18.20;99.90
2757;DHT22;1386;50.862;6.494;2023-08-31T18:10:43;18.20;99.90
2757;DHT22;1386;50.862;6.494;2023-08-31T18:24:36;17.70;99.90
2757;DHT22;1386;50.862;6.494;2023-08-31T18:27:48;17.60;99.90
2757;DHT22;1386;50.862;6.494;2023-08-31T18:30:19;17.50;99.90
2757;DHT22;1386;50.862;6.494;2023-08-31T18:36:11;17.50;99.90
2757;DHT22;1386;50.862;6.494;2023-08-31T18:43:23;17.40;99.90
2757;DHT22;1386;50.862;6.494;2023-08-31T18:45:17;17.40;99.90
2757;DHT22;1386;50.862;6.494;2023-08-31T18:47:46;17.40;99.90
2757;DHT22;1386;50.862;6.494;2023-08-31T18:50:14;17.30;99.90
2757;DHT22;1386;50.862;6.494;2023-08-31T18:52:46;17.30;99.90
2757;DHT22;1386;50.862;6.494;2023-08-31T18:55:14;17.30;99.90
2757;DHT22;1386;50.862;6.494;2023-08-31T19:08:20;17.20;99.90
2757;DHT22;1386;50.862;6.494;2023-08-31T19:40:30;16.80;99.90
